Time;durP1;ratioP1;P1;durP2;ratioP2;P2;SDS_P1;SDS_P2;PMS_P1;PMS_P2;Temp;Humidity;BMP_temperature;BMP_pressure;BME280_temperature;BME280_humidity;BME280_pressure;Samples;Min_cycle;Max_cycle;Signal;HPM_P1;HPM_P2
2022/11/16 00:02:03;;;;;;;124.27;52.33;;;;;;;;;;5016902;28;20188;-41
2022/11/16 00:04:29;;;;;;;123.10;51.97;;;;;;;;;;5014995;28;20217;-41
2022/11/16 00:06:55;;;;;;;123.03;52.80;;;;;;;;;;5008884;28;21039;-41
2022/11/16 00:09:21;;;;;;;95.33;48.53;;;;;;;;;;5014367;28;20717;-41
2022/11/16 00:11:51;;;;;;;90.53;46.73;;;;;;;;;;5016084;28;20189;-39
2022/11/16 00:14:18;;;;;;;129.23;52.57;;;;;;;;;;5009081;28;20204;-40
2022/11/16 00:16:44;;;;;;;113.37;51.63;;;;;;;;;;5009153;28;20426;-42
2022/11/16 00:19:11;;;;;;;119.40;51.17;;;;;;;;;;5012951;28;20688;-40
2022/11/16 00:21:37;;;;;;;86.40;45.50;;;;;;;;;;5017391;28;20475;-41
2022/11/16 00:24:04;;;;;;;114.20;49.17;;;;;;;;;;5015425;28;20557;-43
2022/11/16 00:26:30;;;;;;;108.53;49.10;;;;;;;;;;5010777;28;20300;-41
2022/11/16 00:28:56;;;;;;;83.20;44.27;;;;;;;;;;5010146;28;20683;-38
2022/11/16 00:31:23;;;;;;;82.30;43.73;;;;;;;;;;5014005;28;20196;-41
2022/11/16 00:33:49;;;;;;;83.37;43.20;;;;;;;;;;5015898;28;20200;-39
2022/11/16 00:36:15;;;;;;;81.87;41.87;;;;;;;;;;5013070;28;20863;-41
2022/11/16 00:38:41;;;;;;;100.80;45.37;;;;;;;;;;5013885;28;20722;-37
2022/11/16 00:41:08;;;;;;;92.27;43.87;;;;;;;;;;5012183;28;20196;-37
2022/11/16 00:43:34;;;;;;;78.63;42.60;;;;;;;;;;5009766;28;20273;-37
2022/11/16 00:46:00;;;;;;;74.10;40.77;;;;;;;;;;5011216;28;20188;-38
2022/11/16 00:48:26;;;;;;;73.43;38.50;;;;;;;;;;5018049;28;20168;-39
2022/11/16 00:50:53;;;;;;;84.70;41.50;;;;;;;;;;5022166;28;20464;-41
2022/11/16 00:53:19;;;;;;;75.77;41.37;;;;;;;;;;5019360;28;20179;-40
2022/11/16 00:55:46;;;;;;;70.53;38.63;;;;;;;;;;5019347;28;20164;-39
2022/11/16 00:58:13;;;;;;;78.60;40.67;;;;;;;;;;5017979;28;20188;-39
2022/11/16 01:00:39;;;;;;;73.13;39.90;;;;;;;;;;5018468;28;21142;-40
2022/11/16 01:03:06;;;;;;;87.27;41.00;;;;;;;;;;4976958;28;1138502;-40
2022/11/16 01:05:32;;;;;;;65.53;37.27;;;;;;;;;;5016251;28;20176;-39
2022/11/16 01:07:58;;;;;;;71.17;38.10;;;;;;;;;;5024341;28;20183;-39
2022/11/16 01:10:25;;;;;;;86.87;43.03;;;;;;;;;;5022787;28;20184;-40
2022/11/16 01:12:52;;;;;;;72.10;37.90;;;;;;;;;;5015136;28;20176;-42
2022/11/16 01:15:19;;;;;;;63.97;36.47;;;;;;;;;;5016968;28;20604;-39
2022/11/16 01:17:45;;;;;;;64.77;35.90;;;;;;;;;;5015986;28;20207;-41
2022/11/16 01:20:14;;;;;;;69.27;37.70;;;;;;;;;;5016624;28;20208;-40
2022/11/16 01:22:40;;;;;;;66.63;37.93;;;;;;;;;;5013882;28;21467;-42
2022/11/16 01:25:07;;;;;;;59.73;35.57;;;;;;;;;;5023525;28;20204;-42
2022/11/16 01:27:33;;;;;;;67.63;36.87;;;;;;;;;;5020002;28;20204;-41
2022/11/16 01:29:59;;;;;;;78.07;39.90;;;;;;;;;;5018284;28;20208;-39
2022/11/16 01:32:25;;;;;;;61.50;35.27;;;;;;;;;;5013695;28;20218;-39
2022/11/16 01:34:51;;;;;;;63.10;36.03;;;;;;;;;;5018987;28;20191;-41
2022/11/16 01:37:18;;;;;;;61.80;35.47;;;;;;;;;;5018156;28;20481;-43
2022/11/16 01:39:44;;;;;;;62.00;36.00;;;;;;;;;;5011565;28;20199;-44
2022/11/16 01:42:20;;;;;;;69.13;36.53;;;;;;;;;;5014317;28;20562;-44
2022/11/16 01:44:46;;;;;;;58.93;34.57;;;;;;;;;;5020557;28;20481;-43
2022/11/16 01:47:14;;;;;;;60.90;35.30;;;;;;;;;;5018992;28;20192;-40
2022/11/16 01:49:45;;;;;;;59.63;34.83;;;;;;;;;;5012808;28;20204;-41
2022/11/16 01:52:14;;;;;;;60.97;34.10;;;;;;;;;;5018909;28;20231;-41
2022/11/16 01:54:41;;;;;;;61.70;35.00;;;;;;;;;;5018550;28;20220;-39
2022/11/16 01:57:10;;;;;;;61.97;35.27;;;;;;;;;;5019925;28;20286;-42
2022/11/16 01:59:37;;;;;;;68.20;36.83;;;;;;;;;;5017801;28;20506;-40
2022/11/16 02:02:03;;;;;;;64.23;36.53;;;;;;;;;;5014204;28;20202;-39
2022/11/16 02:04:29;;;;;;;62.13;33.77;;;;;;;;;;5065494;22;20672;-34
2022/11/16 02:06:58;;;;;;;66.07;35.57;;;;;;;;;;5035999;28;20310;-34
2022/11/16 02:09:52;;;;;;;65.27;35.87;;;;;;;;;;5051170;28;22508;-34
2022/11/16 02:12:37;;;;;;;72.60;36.47;;;;;;;;;;5047688;28;20470;-34
2022/11/16 02:15:21;;;;;;;62.73;34.00;;;;;;;;;;5052437;28;20191;-33
2022/11/16 02:18:00;;;;;;;58.23;32.17;;;;;;;;;;5047932;28;20191;-34
2022/11/16 02:20:32;;;;;;;55.33;32.10;;;;;;;;;;5049824;28;20571;-34
2022/11/16 02:22:58;;;;;;;76.57;38.07;;;;;;;;;;5054632;28;20222;-34
2022/11/16 02:25:42;;;;;;;60.63;34.80;;;;;;;;;;5047382;28;20585;-34
2022/11/16 02:28:14;;;;;;;70.37;35.43;;;;;;;;;;5049327;28;20187;-34
2022/11/16 02:30:44;;;;;;;66.90;35.20;;;;;;;;;;5050236;28;20191;-34
2022/11/16 02:33:17;;;;;;;59.33;33.63;;;;;;;;;;5050505;28;20918;-35
2022/11/16 02:36:02;;;;;;;65.10;35.30;;;;;;;;;;5051723;28;20191;-36
2022/11/16 02:38:33;;;;;;;56.67;32.90;;;;;;;;;;5051697;28;20558;-35
2022/11/16 02:41:04;;;;;;;65.30;35.77;;;;;;;;;;5052045;28;20178;-36
2022/11/16 02:43:33;;;;;;;70.03;37.47;;;;;;;;;;5048218;28;20213;-36
2022/11/16 02:46:02;;;;;;;74.47;38.13;;;;;;;;;;5048960;28;20653;-34
2022/11/16 02:48:31;;;;;;;59.47;34.17;;;;;;;;;;5053607;28;20178;-35
2022/11/16 02:50:57;;;;;;;56.63;33.67;;;;;;;;;;5049845;28;20477;-36
2022/11/16 02:53:24;;;;;;;55.10;33.80;;;;;;;;;;5043958;28;20698;-36
2022/11/16 02:55:51;;;;;;;52.10;32.73;;;;;;;;;;5051181;28;20290;-36
2022/11/16 02:58:21;;;;;;;58.60;34.20;;;;;;;;;;5051158;28;21127;-36
2022/11/16 03:00:58;;;;;;;53.13;33.27;;;;;;;;;;5048329;28;20741;-36
2022/11/16 03:03:40;;;;;;;48.97;30.27;;;;;;;;;;5045856;28;21014;-36
2022/11/16 03:06:11;;;;;;;53.60;32.03;;;;;;;;;;5046802;28;20190;-37
2022/11/16 03:08:39;;;;;;;59.57;34.10;;;;;;;;;;5049531;28;20264;-35
2022/11/16 03:13:55;;;;;;;48.67;30.67;;;;;;;;;;5049361;28;20237;-35
2022/11/16 03:16:31;;;;;;;45.80;29.77;;;;;;;;;;5031469;28;20194;-34
2022/11/16 03:18:58;;;;;;;45.73;28.97;;;;;;;;;;5046898;28;20738;-36
2022/11/16 03:21:24;;;;;;;58.33;33.63;;;;;;;;;;5045566;28;20687;-36
2022/11/16 03:23:51;;;;;;;56.50;32.90;;;;;;;;;;5050710;28;20930;-37
2022/11/16 03:26:19;;;;;;;49.30;30.87;;;;;;;;;;5046699;28;20635;-36
2022/11/16 03:28:48;;;;;;;51.10;31.17;;;;;;;;;;5045838;28;20234;-36
2022/11/16 03:31:18;;;;;;;60.17;33.17;;;;;;;;;;5052825;28;20248;-37
2022/11/16 03:33:49;;;;;;;50.33;30.20;;;;;;;;;;5048621;28;20197;-36
2022/11/16 03:36:15;;;;;;;64.07;35.47;;;;;;;;;;5044021;28;20625;-36
2022/11/16 03:38:43;;;;;;;52.87;32.17;;;;;;;;;;5048744;28;21162;-37
2022/11/16 03:41:10;;;;;;;62.60;34.33;;;;;;;;;;5053024;28;20187;-37
2022/11/16 03:43:36;;;;;;;67.33;35.67;;;;;;;;;;5050521;28;20198;-36
2022/11/16 03:46:03;;;;;;;53.67;31.87;;;;;;;;;;5041821;28;20372;-37
2022/11/16 03:48:37;;;;;;;63.03;35.70;;;;;;;;;;5029726;28;20264;-36
2022/11/16 03:51:03;;;;;;;58.00;33.40;;;;;;;;;;5052184;28;20745;-36
2022/11/16 03:53:29;;;;;;;79.27;39.43;;;;;;;;;;5031363;28;20201;-37
2022/11/16 03:55:56;;;;;;;78.60;39.10;;;;;;;;;;5047631;28;21136;-36
2022/11/16 03:58:22;;;;;;;77.20;39.30;;;;;;;;;;5047201;28;20533;-36
2022/11/16 04:00:48;;;;;;;81.90;39.97;;;;;;;;;;5049435;28;20241;-37
2022/11/16 04:03:14;;;;;;;83.57;40.33;;;;;;;;;;5045657;28;20780;-36
2022/11/16 04:25:09;;;;;;;83.30;40.73;;;;;;;;;;5049503;28;20735;-36
2022/11/16 04:30:20;;;;;;;72.10;39.77;;;;;;;;;;5053709;28;20784;-35
2022/11/16 04:38:15;;;;;;;83.23;41.23;;;;;;;;;;5052955;28;20975;-35
2022/11/16 04:40:42;;;;;;;66.13;37.47;;;;;;;;;;5052067;28;21589;-35
2022/11/16 04:43:08;;;;;;;65.20;36.27;;;;;;;;;;5037213;28;20517;-35
2022/11/16 04:48:19;;;;;;;66.27;37.20;;;;;;;;;;5050662;28;20189;-34
2022/11/16 04:50:46;;;;;;;61.50;37.90;;;;;;;;;;5051625;28;20197;-36
2022/11/16 04:53:12;;;;;;;74.97;40.67;;;;;;;;;;5054566;28;20717;-35
2022/11/16 04:55:39;;;;;;;66.07;37.07;;;;;;;;;;5052001;28;20248;-34
2022/11/16 04:58:05;;;;;;;78.17;41.13;;;;;;;;;;5050110;28;20186;-36
2022/11/16 05:00:31;;;;;;;65.63;38.20;;;;;;;;;;5053609;28;20261;-37
2022/11/16 05:02:57;;;;;;;78.47;41.00;;;;;;;;;;5053453;28;20175;-36
2022/11/16 05:05:23;;;;;;;86.87;42.33;;;;;;;;;;5053563;28;20194;-36
2022/11/16 05:07:50;;;;;;;67.93;37.97;;;;;;;;;;5051743;28;20611;-36
2022/11/16 05:10:16;;;;;;;73.43;38.60;;;;;;;;;;5053231;28;20460;-36
2022/11/16 05:12:42;;;;;;;90.43;43.00;;;;;;;;;;5053047;28;20214;-36
2022/11/16 05:15:08;;;;;;;66.23;38.23;;;;;;;;;;5049302;28;20259;-36
2022/11/16 05:17:35;;;;;;;86.10;43.97;;;;;;;;;;5050334;28;20219;-36
2022/11/16 05:22:52;;;;;;;102.37;45.67;;;;;;;;;;5051484;28;20229;-36
2022/11/16 05:25:18;;;;;;;84.90;42.73;;;;;;;;;;5053126;28;20181;-37
2022/11/16 05:27:44;;;;;;;94.07;44.27;;;;;;;;;;5052468;28;20445;-36
2022/11/16 05:30:11;;;;;;;93.00;44.67;;;;;;;;;;5047678;28;20490;-36
2022/11/16 05:32:37;;;;;;;104.90;46.30;;;;;;;;;;5050724;28;20199;-36
2022/11/16 05:35:03;;;;;;;100.50;45.40;;;;;;;;;;5053120;28;20701;-36
2022/11/16 05:37:29;;;;;;;93.30;45.20;;;;;;;;;;5049389;28;20424;-36
2022/11/16 05:39:55;;;;;;;99.20;46.27;;;;;;;;;;5049627;28;20714;-36
2022/11/16 05:42:22;;;;;;;91.17;44.83;;;;;;;;;;5055023;28;20678;-37
2022/11/16 05:44:48;;;;;;;104.63;47.13;;;;;;;;;;5049226;28;20182;-36
2022/11/16 05:47:14;;;;;;;90.97;47.13;;;;;;;;;;5048410;28;20497;-37
2022/11/16 05:49:40;;;;;;;84.27;43.53;;;;;;;;;;5052597;28;20930;-36
2022/11/16 05:52:06;;;;;;;95.60;48.50;;;;;;;;;;5053484;28;20529;-37
2022/11/16 05:54:32;;;;;;;79.23;43.77;;;;;;;;;;5046872;28;20206;-36
2022/11/16 05:56:58;;;;;;;101.30;47.47;;;;;;;;;;5049785;28;20594;-37
2022/11/16 05:59:24;;;;;;;98.67;48.80;;;;;;;;;;5053305;28;20203;-37
2022/11/16 06:01:51;;;;;;;95.03;47.07;;;;;;;;;;5049816;28;20210;-36
2022/11/16 06:04:17;;;;;;;81.57;45.37;;;;;;;;;;5048751;28;21043;-36
2022/11/16 06:06:43;;;;;;;90.47;46.07;;;;;;;;;;5053218;28;20214;-36
2022/11/16 06:09:13;;;;;;;101.37;45.97;;;;;;;;;;5053273;28;20663;-37
2022/11/16 06:11:39;;;;;;;90.40;45.50;;;;;;;;;;5039333;28;20206;-36
2022/11/16 06:14:05;;;;;;;80.20;41.67;;;;;;;;;;5042476;28;20448;-37
2022/11/16 06:16:31;;;;;;;95.00;45.17;;;;;;;;;;5046396;28;20461;-36
2022/11/16 06:18:59;;;;;;;107.13;47.30;;;;;;;;;;5049056;28;20189;-36
2022/11/16 06:21:25;;;;;;;86.13;43.67;;;;;;;;;;5048801;28;20823;-37
2022/11/16 06:23:51;;;;;;;92.03;44.90;;;;;;;;;;5039657;28;20914;-36
2022/11/16 06:26:17;;;;;;;94.93;44.63;;;;;;;;;;5032933;28;20210;-36
2022/11/16 06:28:43;;;;;;;81.47;42.07;;;;;;;;;;5045983;28;20792;-36
2022/11/16 06:31:09;;;;;;;83.83;43.67;;;;;;;;;;5044028;28;20857;-36
2022/11/16 06:33:35;;;;;;;82.93;43.47;;;;;;;;;;5051707;28;20175;-36
2022/11/16 06:36:01;;;;;;;93.30;46.13;;;;;;;;;;5052098;28;20459;-36
2022/11/16 06:38:27;;;;;;;95.07;46.43;;;;;;;;;;5033792;28;20183;-37
2022/11/16 06:40:55;;;;;;;74.70;40.63;;;;;;;;;;5052638;28;20199;-36
2022/11/16 06:43:21;;;;;;;104.37;47.63;;;;;;;;;;5051847;28;20236;-36
2022/11/16 06:45:48;;;;;;;75.70;42.13;;;;;;;;;;5054476;28;20175;-36
2022/11/16 06:48:14;;;;;;;66.70;38.13;;;;;;;;;;5051329;28;20171;-37
2022/11/16 06:50:40;;;;;;;74.87;40.67;;;;;;;;;;5052745;28;20718;-36
2022/11/16 06:53:06;;;;;;;71.53;39.73;;;;;;;;;;5048497;28;20268;-37
2022/11/16 06:55:32;;;;;;;63.50;38.43;;;;;;;;;;5050687;28;20198;-37
2022/11/16 06:57:59;;;;;;;86.27;43.57;;;;;;;;;;5049775;28;20993;-36
2022/11/16 07:00:26;;;;;;;79.47;41.63;;;;;;;;;;5053060;28;20213;-36
2022/11/16 07:02:52;;;;;;;67.23;39.60;;;;;;;;;;5055074;28;20440;-37
2022/11/16 07:05:18;;;;;;;77.17;40.43;;;;;;;;;;5053339;28;20175;-37
2022/11/16 07:07:45;;;;;;;78.67;43.47;;;;;;;;;;5049563;28;20190;-36
2022/11/16 07:10:11;;;;;;;88.90;43.37;;;;;;;;;;5050430;28;20422;-37
2022/11/16 07:12:37;;;;;;;87.40;44.10;;;;;;;;;;5052038;28;20639;-36
2022/11/16 07:15:03;;;;;;;84.90;44.33;;;;;;;;;;5051687;28;20171;-36
2022/11/16 07:17:29;;;;;;;82.30;43.80;;;;;;;;;;5047575;28;20179;-36
2022/11/16 07:19:55;;;;;;;76.77;40.90;;;;;;;;;;5048217;28;20190;-37
2022/11/16 07:22:21;;;;;;;72.50;40.17;;;;;;;;;;5050703;28;20171;-36
2022/11/16 07:24:47;;;;;;;94.70;47.43;;;;;;;;;;5047386;28;20171;-36
2022/11/16 07:27:14;;;;;;;81.73;43.40;;;;;;;;;;5047153;28;20282;-37
2022/11/16 07:29:40;;;;;;;89.10;45.20;;;;;;;;;;5051082;28;20185;-36
2022/11/16 07:32:06;;;;;;;74.77;41.00;;;;;;;;;;5049483;28;20608;-36
2022/11/16 07:34:32;;;;;;;86.97;43.43;;;;;;;;;;5047343;28;20179;-36
2022/11/16 07:36:58;;;;;;;74.87;41.50;;;;;;;;;;5046074;28;20181;-36
2022/11/16 07:39:24;;;;;;;71.43;40.37;;;;;;;;;;5050339;28;20197;-37
2022/11/16 07:41:52;;;;;;;79.90;42.27;;;;;;;;;;5051547;28;20290;-37
2022/11/16 07:44:18;;;;;;;67.87;38.93;;;;;;;;;;5051615;28;20833;-36
2022/11/16 07:46:47;;;;;;;67.17;37.97;;;;;;;;;;5052677;28;20504;-37
2022/11/16 07:49:15;;;;;;;63.43;36.57;;;;;;;;;;5049453;28;20636;-37
2022/11/16 07:51:41;;;;;;;57.80;34.50;;;;;;;;;;5051931;28;20171;-37
2022/11/16 07:54:07;;;;;;;59.20;34.77;;;;;;;;;;5049068;28;20520;-37
2022/11/16 07:56:33;;;;;;;65.87;38.00;;;;;;;;;;5046026;28;20630;-37
2022/11/16 07:59:00;;;;;;;59.63;35.30;;;;;;;;;;5050434;28;20676;-38
2022/11/16 08:01:26;;;;;;;56.00;33.10;;;;;;;;;;5050116;28;20222;-38
2022/11/16 08:03:52;;;;;;;54.33;33.30;;;;;;;;;;5049274;28;20486;-37
2022/11/16 08:06:22;;;;;;;55.47;34.50;;;;;;;;;;5047605;28;20181;-37
2022/11/16 08:08:48;;;;;;;53.43;33.33;;;;;;;;;;5047959;28;20172;-37
2022/11/16 08:11:14;;;;;;;51.73;32.37;;;;;;;;;;5047873;28;20477;-37
2022/11/16 08:13:41;;;;;;;52.63;33.57;;;;;;;;;;5051549;28;20660;-37
2022/11/16 08:16:09;;;;;;;47.73;31.17;;;;;;;;;;5047230;28;20429;-36
2022/11/16 08:18:36;;;;;;;41.87;28.47;;;;;;;;;;5045438;28;20183;-38
2022/11/16 08:21:03;;;;;;;46.73;30.43;;;;;;;;;;5052645;28;20713;-37
2022/11/16 08:23:30;;;;;;;48.77;31.27;;;;;;;;;;5047187;28;20199;-38
2022/11/16 08:26:16;;;;;;;48.37;28.47;;;;;;;;;;5047174;28;20175;-37
2022/11/16 08:28:43;;;;;;;43.77;28.27;;;;;;;;;;5050829;28;20163;-37
2022/11/16 08:31:13;;;;;;;47.13;30.53;;;;;;;;;;5050035;28;20485;-37
2022/11/16 08:33:39;;;;;;;38.43;27.20;;;;;;;;;;5045905;28;20183;-38
2022/11/16 08:36:06;;;;;;;35.83;25.77;;;;;;;;;;5046495;28;20183;-38
2022/11/16 08:38:33;;;;;;;34.70;25.70;;;;;;;;;;5050376;28;21141;-37
2022/11/16 08:40:59;;;;;;;35.13;25.37;;;;;;;;;;5051417;28;20203;-37
2022/11/16 08:43:25;;;;;;;32.97;23.80;;;;;;;;;;5049062;28;20183;-37
2022/11/16 08:45:52;;;;;;;30.10;22.37;;;;;;;;;;5042797;28;20602;-37
2022/11/16 08:48:18;;;;;;;35.73;25.47;;;;;;;;;;5048216;28;20649;-37
2022/11/16 08:50:44;;;;;;;44.07;27.90;;;;;;;;;;5053012;28;21098;-38
2022/11/16 08:53:12;;;;;;;39.23;27.27;;;;;;;;;;5047502;28;20473;-38
2022/11/16 08:55:38;;;;;;;42.37;29.00;;;;;;;;;;5047100;28;20179;-37
2022/11/16 08:58:04;;;;;;;40.17;26.73;;;;;;;;;;5047793;28;20175;-37
2022/11/16 09:00:30;;;;;;;46.43;30.17;;;;;;;;;;5048348;28;20719;-37
2022/11/16 09:02:56;;;;;;;48.23;31.43;;;;;;;;;;5049470;28;20252;-38
2022/11/16 09:05:22;;;;;;;48.03;31.33;;;;;;;;;;5045846;28;20225;-38
2022/11/16 09:07:48;;;;;;;46.40;32.27;;;;;;;;;;5047790;28;20937;-38
2022/11/16 09:10:17;;;;;;;51.93;33.63;;;;;;;;;;5053268;28;20235;-38
2022/11/16 09:12:43;;;;;;;41.60;28.63;;;;;;;;;;5050850;28;20513;-37
2022/11/16 09:15:09;;;;;;;48.17;32.13;;;;;;;;;;5050689;28;20205;-37
2022/11/16 09:17:35;;;;;;;48.20;31.17;;;;;;;;;;5054241;28;20599;-37
2022/11/16 09:20:02;;;;;;;43.23;27.53;;;;;;;;;;5052774;28;20191;-36
2022/11/16 09:22:28;;;;;;;35.23;24.27;;;;;;;;;;5049397;28;20592;-35
2022/11/16 09:24:54;;;;;;;44.27;28.43;;;;;;;;;;5051656;28;20171;-35
2022/11/16 09:27:20;;;;;;;39.07;25.67;;;;;;;;;;5054025;28;20765;-35
2022/11/16 09:29:46;;;;;;;38.97;24.80;;;;;;;;;;5052477;28;20456;-35
2022/11/16 09:32:13;;;;;;;42.53;26.57;;;;;;;;;;5050491;28;20181;-35
2022/11/16 09:34:39;;;;;;;29.80;20.97;;;;;;;;;;5055168;28;20232;-36
2022/11/16 09:37:05;;;;;;;32.13;20.87;;;;;;;;;;5052902;28;20222;-35
2022/11/16 09:39:31;;;;;;;33.73;21.80;;;;;;;;;;5049665;28;20330;-35
2022/11/16 09:42:01;;;;;;;30.90;20.53;;;;;;;;;;5051241;28;20453;-35
2022/11/16 09:44:27;;;;;;;31.33;20.47;;;;;;;;;;5052409;28;20604;-35
2022/11/16 09:46:55;;;;;;;33.63;22.20;;;;;;;;;;5054650;28;20190;-35
2022/11/16 09:49:26;;;;;;;34.13;22.20;;;;;;;;;;5053926;28;20179;-36
2022/11/16 09:51:54;;;;;;;30.07;19.77;;;;;;;;;;5051744;28;20191;-35
2022/11/16 09:54:22;;;;;;;36.57;22.83;;;;;;;;;;5051639;28;20730;-34
2022/11/16 09:56:51;;;;;;;30.60;21.03;;;;;;;;;;5055718;28;20182;-35
2022/11/16 09:59:20;;;;;;;28.63;20.63;;;;;;;;;;5054431;28;20459;-33
2022/11/16 10:01:55;;;;;;;33.80;22.80;;;;;;;;;;5050987;28;20178;-34
2022/11/16 10:04:35;;;;;;;32.43;22.03;;;;;;;;;;5051856;28;20183;-35
2022/11/16 10:07:08;;;;;;;33.83;22.10;;;;;;;;;;5054165;28;20210;-36
2022/11/16 10:09:34;;;;;;;36.13;22.83;;;;;;;;;;5051252;28;20436;-35
2022/11/16 10:12:24;;;;;;;33.67;21.20;;;;;;;;;;5050216;28;20179;-36
2022/11/16 10:15:00;;;;;;;34.40;22.87;;;;;;;;;;5046637;28;20191;-35
2022/11/16 10:17:45;;;;;;;38.30;24.17;;;;;;;;;;5056079;28;20852;-35
2022/11/16 10:20:12;;;;;;;34.13;22.87;;;;;;;;;;5051050;28;21069;-35
2022/11/16 10:22:41;;;;;;;38.30;25.47;;;;;;;;;;5048250;28;20442;-35
2022/11/16 10:25:15;;;;;;;34.07;24.20;;;;;;;;;;5053822;28;20626;-36
2022/11/16 10:28:00;;;;;;;30.67;21.73;;;;;;;;;;5051221;28;20268;-35
2022/11/16 10:30:27;;;;;;;32.03;22.43;;;;;;;;;;5050850;28;20174;-37
2022/11/16 10:32:56;;;;;;;32.23;22.60;;;;;;;;;;5051395;28;20213;-36
2022/11/16 10:35:32;;;;;;;32.53;23.03;;;;;;;;;;5055569;28;20184;-37
2022/11/16 10:38:02;;;;;;;32.30;23.23;;;;;;;;;;5049564;28;20733;-36
2022/11/16 10:40:39;;;;;;;30.87;22.60;;;;;;;;;;5048535;28;20421;-37
2022/11/16 10:43:18;;;;;;;29.77;21.93;;;;;;;;;;5050172;28;20791;-37
2022/11/16 10:45:44;;;;;;;28.30;20.77;;;;;;;;;;5054431;28;20281;-36
2022/11/16 10:48:11;;;;;;;27.77;20.43;;;;;;;;;;5051765;28;20183;-37
2022/11/16 10:50:37;;;;;;;24.50;18.67;;;;;;;;;;5051501;28;20930;-37
2022/11/16 10:53:03;;;;;;;24.67;19.37;;;;;;;;;;5051760;28;20170;-37
2022/11/16 10:55:29;;;;;;;26.00;19.73;;;;;;;;;;5051678;28;20238;-36
2022/11/16 10:57:57;;;;;;;24.60;17.60;;;;;;;;;;5050576;28;20174;-36
2022/11/16 11:00:52;;;;;;;25.97;18.80;;;;;;;;;;5049979;28;20259;-37
2022/11/16 11:03:29;;;;;;;21.20;17.63;;;;;;;;;;5048597;28;20187;-37
2022/11/16 11:05:56;;;;;;;21.00;16.17;;;;;;;;;;5049214;28;20348;-38
2022/11/16 11:08:40;;;;;;;24.47;18.63;;;;;;;;;;5049412;28;20171;-38
2022/11/16 11:14:04;;;;;;;21.13;16.73;;;;;;;;;;5057189;28;20874;-38
2022/11/16 11:16:31;;;;;;;22.70;17.40;;;;;;;;;;5049872;28;20289;-37
2022/11/16 11:18:57;;;;;;;20.40;16.93;;;;;;;;;;5051326;28;20182;-37
2022/11/16 11:21:25;;;;;;;22.77;18.90;;;;;;;;;;5051111;28;20670;-37
2022/11/16 11:23:52;;;;;;;23.87;19.83;;;;;;;;;;5054575;28;20214;-37
2022/11/16 11:26:39;;;;;;;23.47;18.97;;;;;;;;;;5048390;28;20197;-37
2022/11/16 11:29:20;;;;;;;20.00;16.93;;;;;;;;;;5049793;28;20624;-37
2022/11/16 11:31:48;;;;;;;20.53;16.73;;;;;;;;;;5051874;28;20167;-37
2022/11/16 11:34:17;;;;;;;19.93;17.30;;;;;;;;;;5047435;28;20243;-38
2022/11/16 11:36:45;;;;;;;21.03;17.33;;;;;;;;;;5051005;28;20171;-38
2022/11/16 11:39:12;;;;;;;22.83;18.83;;;;;;;;;;5053906;28;20709;-37
2022/11/16 11:41:40;;;;;;;23.27;18.20;;;;;;;;;;5051764;28;20268;-38
2022/11/16 11:44:15;;;;;;;21.07;17.13;;;;;;;;;;5050063;28;20687;-37
2022/11/16 11:46:50;;;;;;;22.23;19.00;;;;;;;;;;5040302;28;20182;-37
2022/11/16 11:49:20;;;;;;;19.17;16.77;;;;;;;;;;5052008;28;20173;-37
2022/11/16 11:51:47;;;;;;;25.27;20.17;;;;;;;;;;5050593;28;20187;-38
2022/11/16 11:54:20;;;;;;;24.70;19.57;;;;;;;;;;5050460;28;20166;-37
2022/11/16 11:56:46;;;;;;;26.07;20.57;;;;;;;;;;5053687;28;20174;-38
2022/11/16 11:59:17;;;;;;;24.83;19.93;;;;;;;;;;5052540;28;20471;-37
2022/11/16 12:01:47;;;;;;;20.77;17.53;;;;;;;;;;5044797;28;20168;-38
2022/11/16 12:04:16;;;;;;;24.60;19.33;;;;;;;;;;5030853;28;20221;-37
2022/11/16 12:06:48;;;;;;;24.07;19.97;;;;;;;;;;5050802;28;20787;-38
2022/11/16 12:09:30;;;;;;;23.13;18.40;;;;;;;;;;5053935;28;20163;-38
2022/11/16 12:12:09;;;;;;;23.43;18.17;;;;;;;;;;5051971;28;20991;-40
2022/11/16 12:14:55;;;;;;;23.03;17.97;;;;;;;;;;5048107;28;20878;-38
2022/11/16 12:17:27;;;;;;;22.47;16.73;;;;;;;;;;5052493;28;20648;-38
2022/11/16 12:20:11;;;;;;;23.87;17.83;;;;;;;;;;5051861;28;20873;-38
2022/11/16 12:22:49;;;;;;;21.27;17.17;;;;;;;;;;5048036;28;20171;-37
2022/11/16 12:25:24;;;;;;;22.10;17.47;;;;;;;;;;5050897;28;20427;-37
2022/11/16 12:28:02;;;;;;;21.80;17.63;;;;;;;;;;5052879;28;20202;-37
2022/11/16 12:30:31;;;;;;;17.93;14.73;;;;;;;;;;5049986;28;20167;-38
2022/11/16 12:33:22;;;;;;;20.70;16.53;;;;;;;;;;5050052;28;20175;-37
2022/11/16 12:35:54;;;;;;;21.10;15.20;;;;;;;;;;5052537;28;20911;-38
2022/11/16 12:38:20;;;;;;;16.77;13.63;;;;;;;;;;5050494;28;20606;-38
2022/11/16 12:40:49;;;;;;;18.40;13.93;;;;;;;;;;5049386;28;20314;-38
2022/11/16 12:43:15;;;;;;;17.70;13.37;;;;;;;;;;5053666;28;20168;-38
2022/11/16 12:45:56;;;;;;;17.97;14.47;;;;;;;;;;5053845;28;20167;-38
2022/11/16 12:48:36;;;;;;;20.83;14.90;;;;;;;;;;5054580;28;20166;-38
2022/11/16 12:51:05;;;;;;;17.80;13.93;;;;;;;;;;5058541;28;20175;-38
2022/11/16 12:53:40;;;;;;;20.57;15.07;;;;;;;;;;5054606;28;20839;-38
2022/11/16 12:56:25;;;;;;;18.27;13.97;;;;;;;;;;5052760;28;21016;-38
2022/11/16 12:59:03;;;;;;;18.07;14.47;;;;;;;;;;5054917;28;20772;-38
2022/11/16 13:01:35;;;;;;;21.70;15.93;;;;;;;;;;5056079;28;20503;-38
2022/11/16 13:04:07;;;;;;;17.87;14.97;;;;;;;;;;5053656;28;20832;-38
2022/11/16 13:06:36;;;;;;;20.77;16.07;;;;;;;;;;5052561;28;20268;-38
2022/11/16 13:09:09;;;;;;;22.23;16.07;;;;;;;;;;5055369;28;20225;-38
2022/11/16 13:11:38;;;;;;;19.73;15.37;;;;;;;;;;5052164;28;20286;-38
2022/11/16 13:14:06;;;;;;;21.00;15.43;;;;;;;;;;5051472;28;20598;-38
2022/11/16 13:16:33;;;;;;;22.23;17.27;;;;;;;;;;5055341;28;20182;-38
2022/11/16 13:19:00;;;;;;;18.67;14.70;;;;;;;;;;5055810;28;20366;-38
2022/11/16 13:21:50;;;;;;;21.33;16.10;;;;;;;;;;5051725;28;20212;-38
2022/11/16 13:24:16;;;;;;;21.23;16.07;;;;;;;;;;5015678;28;20311;-38
2022/11/16 13:26:48;;;;;;;18.30;13.87;;;;;;;;;;5056490;28;20240;-38
2022/11/16 13:29:33;;;;;;;17.97;13.87;;;;;;;;;;5052596;28;20223;-38
2022/11/16 13:32:22;;;;;;;19.07;14.67;;;;;;;;;;5050645;28;20167;-38
2022/11/16 13:34:48;;;;;;;17.87;13.77;;;;;;;;;;5052394;28;20503;-38
2022/11/16 13:37:33;;;;;;;18.53;14.17;;;;;;;;;;5056570;28;20512;-38
2022/11/16 13:39:59;;;;;;;23.43;17.07;;;;;;;;;;5049393;28;20187;-38
2022/11/16 13:42:25;;;;;;;21.17;15.23;;;;;;;;;;5053976;28;20592;-38
2022/11/16 13:44:52;;;;;;;19.40;14.40;;;;;;;;;;5056965;28;20171;-38
2022/11/16 13:47:18;;;;;;;18.93;13.47;;;;;;;;;;5051092;28;20186;-38
2022/11/16 13:49:53;;;;;;;19.53;14.97;;;;;;;;;;5035250;28;20441;-38
2022/11/16 13:52:19;;;;;;;18.50;15.63;;;;;;;;;;5054793;28;20531;-38
2022/11/16 13:54:46;;;;;;;21.87;17.77;;;;;;;;;;5055048;28;20281;-38
2022/11/16 13:57:32;;;;;;;18.47;15.50;;;;;;;;;;5054578;28;20175;-38
2022/11/16 14:00:02;;;;;;;17.50;13.63;;;;;;;;;;5051042;28;20599;-38
2022/11/16 14:02:32;;;;;;;20.93;15.43;;;;;;;;;;5056122;28;20820;-38
2022/11/16 14:05:01;;;;;;;20.37;15.47;;;;;;;;;;5053036;28;20616;-38
2022/11/16 14:07:30;;;;;;;19.97;16.27;;;;;;;;;;5051610;28;20185;-38
2022/11/16 14:09:56;;;;;;;21.97;16.30;;;;;;;;;;5051974;28;20522;-38
2022/11/16 14:12:46;;;;;;;19.00;15.70;;;;;;;;;;5053369;28;20614;-38
2022/11/16 14:15:26;;;;;;;20.23;15.50;;;;;;;;;;5046375;28;20270;-38
2022/11/16 14:17:56;;;;;;;22.07;15.80;;;;;;;;;;5051412;28;20177;-38
2022/11/16 14:20:28;;;;;;;18.07;14.23;;;;;;;;;;5054478;28;20207;-38
2022/11/16 14:22:54;;;;;;;23.67;16.27;;;;;;;;;;5053488;28;21028;-38
2022/11/16 14:25:32;;;;;;;22.33;17.27;;;;;;;;;;5050291;28;20562;-38
2022/11/16 14:28:13;;;;;;;22.30;16.70;;;;;;;;;;5053031;28;20611;-38
2022/11/16 14:31:02;;;;;;;20.30;16.03;;;;;;;;;;5052544;28;20243;-38
2022/11/16 14:33:31;;;;;;;19.57;15.70;;;;;;;;;;5023795;28;20265;-39
2022/11/16 14:35:58;;;;;;;20.90;15.50;;;;;;;;;;5050794;28;20192;-38
2022/11/16 14:38:29;;;;;;;21.00;15.20;;;;;;;;;;5052732;28;20792;-38
2022/11/16 14:40:56;;;;;;;19.07;15.33;;;;;;;;;;5053143;28;20180;-38
2022/11/16 14:43:27;;;;;;;20.97;16.63;;;;;;;;;;5050661;28;20163;-38
2022/11/16 14:45:58;;;;;;;22.40;17.47;;;;;;;;;;5053073;28;20172;-37
2022/11/16 14:48:25;;;;;;;20.50;16.27;;;;;;;;;;5053232;28;20171;-38
2022/11/16 14:51:05;;;;;;;25.17;18.43;;;;;;;;;;5050392;28;20175;-38
2022/11/16 14:53:32;;;;;;;21.40;17.00;;;;;;;;;;5052948;28;20871;-38
2022/11/16 14:56:06;;;;;;;20.60;16.90;;;;;;;;;;5053702;28;20580;-38
2022/11/16 14:58:32;;;;;;;22.77;17.53;;;;;;;;;;5052770;28;20634;-38
2022/11/16 15:00:59;;;;;;;23.63;18.43;;;;;;;;;;5050543;28;20752;-38
2022/11/16 15:03:28;;;;;;;27.00;18.13;;;;;;;;;;5051377;28;20844;-38
2022/11/16 15:05:59;;;;;;;24.10;19.87;;;;;;;;;;5052285;28;20589;-38
2022/11/16 15:08:47;;;;;;;23.53;18.33;;;;;;;;;;5047564;28;20481;-38